Cottonwood, ID (83522)

8:59 PM PST on January 18, 2017 (GMT -0800)
D Sigler | | Change Station
Active Advisory: Winter Weather Advisory

Elev 3570 ft 46.05 °N, 116.35 °W | Updated 27 seconds ago

Overcast
Overcast
33.4 °F
Feels Like 33 °F
N
1.0
Wind Variable Wind from NE

Today
High -- | Low -- °F
--% Chance of Precip.
Yesterday
High -- | Low -- °F
Precip. -- in
Pressure 29.53 in
Visibility 10.0 miles
Clouds Scattered Clouds 2800 ft
Mostly Cloudy 4400 ft
Overcast 7000 ft
Windchill 33 °F
Dew Point 32 °F
Humidity 95%
Rainfall 0.00 in
Snow Depth Not available.
7:21 AM 4:31 PM
Waning Gibbous, 57% visible
METAR KGIC 190435Z AUTO 08005KT 10SM SCT028 BKN044 OVC070 02/01 A2953 RMK AO1
Pressure 29.53 in
Visibility 10.0 miles
Clouds Scattered Clouds 2800 ft
Mostly Cloudy 4400 ft
Overcast 7000 ft
Windchill 33 °F
Dew Point 32 °F
Humidity 95%
Rainfall 0.00 in
Snow Depth Not available.
7:21 AM 4:31 PM
Waning Gibbous, 57% visible
METAR KGIC 190435Z AUTO 08005KT 10SM SCT028 BKN044 OVC070 02/01 A2953 RMK AO1

Get Your Daily Forecast Email!

Thanks for signing up!

Be on the lookout for a verification email in your inbox.

You'll start receiving the daily forecast at 8 AM.

×

10-Day Weather Forecast

Almanac

Astronomy

Jan. 18, 2017 Rise Set
Actual Time
Civil Twilight
Nautical Twilight
Astronomical Twilight
Moon
Length of Visible Light
Length of Day
Tomorrow will be .
, % of the Moon is Illuminated

Today's Extremes

State Highs State Lows

Community

WunderPhotos

Upload Photos

1,962,540 photos uploaded!

WunderBlog® & News

Nearby

Air Quality

  Air Quality AQ Index Pollutant
Not available.

Snow Depth

Station Depth Elevation

Earthquake Activity

City Distance Mag. Time & Date
Minimum magnitude displayed is 2.5.

Coastal Water Temperatures

Place Temperature

Stations

Nearby Weather Stations

Station Location Temp. Windchill Dew Point Humidity Wind Precip. Elev Updated Type
                   

Watches & Warnings

Winter Weather Advisory
Issued: 8:44 PM PST Jan. 18, 2017 – National Weather Service

... Winter Weather Advisory remains in effect until 10 am PST
Thursday...

* impacts/timing: another round of rain/freezing rain/snow is
expected this evening and should continue through Thursday
morning. Any where from 0.25 to 0.5 inch for precipitation
will be possible overnight tonight and could cause additional
snow loading on roofs due to the added moisture.

Additionally, refreeze on roads is possible after sunset today
due to cold sub surface temperatures. Quickly changing and slick
driving conditions should be planned for this evening and through
the morning commute.

* Snow accumulations: 2 to 4 inches above 3500 feet.

* Locations impacted include: Elk River, Highway 11 Pierce to
Headquarters, Pierce, Camas Prairie, Grangeville and vicinity,
and Greer grade